^^
Saratoga-Weather Station Historical Data
Daily Summary for April 13, 2020 Units:  Metric    English   Both
Daily Weekly Monthly Yearly Custom
  High: Low: Average:
Temperature: 24.1 °C 12.3 °C 17.3 °C
Dew Point: 17.6 °C 11.8 °C 14.8 °C
Humidity: 98% 55% 87%
Wind Speed: 13km/h 0km/h 1.5km/h
Wind Gust: 17.7km/h - -
Wind- - South
Pressure: 1012.5 hPa 1007.8 hPa -
Precipitation: 7.9 mm    
Historical Graphs
 
 
Tabular Data for April 13, 2020
Time Temperature Dew Point Pressure Wind Wind Speed Wind Gust Humidity Rainfall Rate (Hourly) solar
00:02 14.4 °C 13.6 °C 1007.8 hPa West 6.4 km/h 11.3 km/h 95% 5.6 mm 0 W/m2
00:07 14.3 °C 13.5 °C 1007.8 hPa WSW 1.4 km/h 6.4 km/h 95% 5.1 mm 0 W/m2
00:12 14.3 °C 13.5 °C 1008.5 hPa East 4.7 km/h 8 km/h 95% 4.3 mm 0 W/m2
00:17 14.4 °C 13.8 °C 1009.1 hPa East 1.4 km/h 3.2 km/h 96% 4.8 mm 0 W/m2
00:22 14.4 °C 13.8 °C 1009.1 hPa NE 1.4 km/h 3.2 km/h 96% 5.6 mm 0 W/m2
00:27 14.6 °C 14 °C 1009.1 hPa Calm   3.2 km/h 96% 6.1 mm 0 W/m2
00:32 14.6 °C 14 °C 1009.1 hPa NE 1.4 km/h 3.2 km/h 96% 6.3 mm 0 W/m2
00:37 14.6 °C 14 °C 1008.8 hPa NE 1.4 km/h 6.4 km/h 96% 6.3 mm 0 W/m2
00:42 14.6 °C 14 °C 1008.8 hPa Calm   1.6 km/h 96% 6.1 mm 0 W/m2
00:47 14.6 °C 14 °C 1009.1 hPa SE 1.4 km/h 3.2 km/h 96% 6.1 mm 0 W/m2
00:52 14.5 °C 13.9 °C 1008.8 hPa ESE 1.4 km/h 1.6 km/h 96% 6.6 mm 0 W/m2
00:57 14.5 °C 13.9 °C 1008.5 hPa Calm   1.6 km/h 96% 6.6 mm 0 W/m2
01:02 14.4 °C 13.8 °C 1008.5 hPa East 1.4 km/h 1.6 km/h 96% 6.3 mm 0 W/m2
01:07 14.4 °C 13.8 °C 1008.5 hPa Calm   1.6 km/h 96% 6.1 mm 0 W/m2
01:12 14.4 °C 13.8 °C 1008.5 hPa Calm     96% 5.3 mm 0 W/m2
01:18 14.3 °C 13.7 °C 1008.5 hPa Calm   1.6 km/h 96% 4.3 mm 0 W/m2
01:23 14.3 °C 13.7 °C 1008.5 hPa Calm     96% 3.3 mm 0 W/m2
01:28 14.3 °C 13.7 °C 1008.5 hPa Calm     96% 2.3 mm 0 W/m2
01:33 14.3 °C 13.7 °C 1008.5 hPa Calm     96% 2.3 mm 0 W/m2
01:38 14.3 °C 13.7 °C 1008.5 hPa Calm     96% 2.0 mm 0 W/m2
01:43 14.3 °C 13.7 °C 1008.5 hPa Calm     96% 1.5 mm 0 W/m2
01:48 14.3 °C 13.7 °C 1008.5 hPa Calm     96% 1.0 mm 0 W/m2
01:53 14.2 °C 13.6 °C 1008.5 hPa Calm     96% 0.2 mm 0 W/m2
01:58 14.2 °C 13.6 °C 1008.5 hPa Calm     96% 0.0 mm 0 W/m2
02:03 14.2 °C 13.6 °C 1008.5 hPa Calm     96% 0.0 mm 0 W/m2
02:08 14.2 °C 13.6 °C 1008.5 hPa Calm     96% 0.0 mm 0 W/m2
02:13 14.2 °C 13.6 °C 1008.5 hPa Calm     96% 0.0 mm 0 W/m2
02:18 14.2 °C 13.6 °C 1008.5 hPa Calm     96% 0.0 mm 0 W/m2
02:23 14.2 °C 13.6 °C 1008.5 hPa Calm     96% 0.0 mm 0 W/m2
02:28 14.1 °C 13.5 °C 1008.5 hPa Calm     96% 0.0 mm 0 W/m2
02:33 14.1 °C 13.5 °C 1008.5 hPa Calm     96% 0.0 mm 0 W/m2
02:38 14.1 °C 13.5 °C 1008.5 hPa Calm     96% 0.0 mm 0 W/m2
02:43 14 °C 13.4 °C 1008.5 hPa Calm     96% 0.0 mm 0 W/m2
02:48 14 °C 13.4 °C 1008.5 hPa Calm     96% 0.0 mm 0 W/m2
02:53 13.9 °C 13.3 °C 1008.5 hPa Calm     96% 0.0 mm 0 W/m2
02:58 14 °C 13.4 °C 1008.5 hPa Calm     96% 0.0 mm 0 W/m2
03:03 14 °C 13.5 °C 1008.5 hPa Calm     97% 0.0 mm 0 W/m2
03:08 14 °C 13.5 °C 1008.5 hPa Calm     97% 0.0 mm 0 W/m2
03:13 14 °C 13.5 °C 1008.5 hPa Calm     97% 0.0 mm 0 W/m2
03:18 14 °C 13.5 °C 1008.5 hPa Calm     97% 0.0 mm 0 W/m2
03:23 13.9 °C 13.4 °C 1008.5 hPa Calm     97% 0.0 mm 0 W/m2
03:28 13.9 °C 13.4 °C 1008.8 hPa Calm     97% 0.0 mm 0 W/m2
03:33 13.9 °C 13.4 °C 1008.8 hPa Calm     97% 0.0 mm 0 W/m2
03:38 14 °C 13.5 °C 1008.8 hPa Calm     97% 0.0 mm 0 W/m2
03:43 14 °C 13.5 °C 1008.5 hPa Calm     97% 0.0 mm 0 W/m2
03:48 13.9 °C 13.4 °C 1008.5 hPa Calm     97% 0.0 mm 0 W/m2
03:53 13.9 °C 13.4 °C 1008.5 hPa Calm     97% 0.2 mm 0 W/m2
03:58 13.9 °C 13.4 °C 1008.5 hPa Calm     97% 0.2 mm 0 W/m2
04:03 13.8 °C 13.3 °C 1008.5 hPa Calm     97% 0.2 mm 0 W/m2
04:08 13.8 °C 13.3 °C 1008.5 hPa Calm     97% 0.2 mm 0 W/m2
04:13 13.8 °C 13.3 °C 1008.5 hPa Calm   1.6 km/h 97% 0.2 mm 0 W/m2
04:18 13.7 °C 13.2 °C 1008.5 hPa Calm     97% 0.2 mm 0 W/m2
04:23 13.6 °C 13.1 °C 1008.5 hPa Calm   1.6 km/h 97% 0.2 mm 0 W/m2
04:28 13.4 °C 12.9 °C 1008.5 hPa Calm     97% 0.2 mm 0 W/m2
04:33 13.3 °C 12.7 °C 1008.5 hPa Calm     96% 0.2 mm 0 W/m2
04:38 13.1 °C 12.5 °C 1008.5 hPa Calm     96% 0.2 mm 0 W/m2
04:43 13 °C 12.4 °C 1008.5 hPa Calm     96% 0.2 mm 0 W/m2
04:48 12.9 °C 12.3 °C 1008.5 hPa Calm     96% 0.2 mm 0 W/m2
04:53 12.8 °C 12.2 °C 1008.5 hPa Calm     96% 0.0 mm 0 W/m2
04:58 12.7 °C 12.2 °C 1008.5 hPa Calm     97% 0.0 mm 0 W/m2
05:03 12.7 °C 12.1 °C 1008.5 hPa Calm     96% 0.0 mm 0 W/m2
05:08 12.5 °C 11.9 °C 1008.5 hPa Calm     96% 0.0 mm 0 W/m2
05:13 12.4 °C 11.8 °C 1008.5 hPa Calm     96% 0.0 mm 0 W/m2
05:18 12.4 °C 11.9 °C 1008.5 hPa Calm     97% 0.0 mm 0 W/m2
05:23 12.3 °C 11.8 °C 1008.5 hPa ESE 1.4 km/h 1.6 km/h 97% 0.0 mm 0 W/m2
05:28 12.4 °C 11.9 °C 1008.5 hPa Calm     97% 0.0 mm 0 W/m2
05:33 12.4 °C 11.9 °C 1008.5 hPa ESE 1.6 km/h 1.6 km/h 97% 0.0 mm 0 W/m2
05:38 12.5 °C 12 °C 1008.5 hPa Calm     97% 0.0 mm 0 W/m2
05:43 12.7 °C 12.2 °C 1008.5 hPa Calm     97% 0.0 mm 5 W/m2
05:48 12.8 °C 12.3 °C 1008.5 hPa Calm     97% 0.0 mm 5 W/m2
05:53 12.8 °C 12.3 °C 1008.5 hPa Calm     97% 0.0 mm 5 W/m2
05:58 12.9 °C 12.4 °C 1008.8 hPa ESE 1.4 km/h 1.6 km/h 97% 0.0 mm 16 W/m2
06:04 13.1 °C 12.6 °C 1008.8 hPa Calm   3.2 km/h 97% 0.0 mm 12 W/m2
06:09 13 °C 12.5 °C 1008.8 hPa Calm     97% 0.0 mm 21 W/m2
06:14 13.1 °C 12.6 °C 1008.8 hPa Calm   3.2 km/h 97% 0.0 mm 19 W/m2
06:19 13.1 °C 12.6 °C 1008.8 hPa ESE 1.4 km/h 1.6 km/h 97% 0.0 mm 14 W/m2
06:24 13.2 °C 12.7 °C 1009.1 hPa Calm     97% 0.0 mm 18 W/m2
06:29 13.2 °C 12.7 °C 1009.1 hPa Calm     97% 0.0 mm 26 W/m2
06:34 13.3 °C 12.8 °C 1009.1 hPa East 1.4 km/h 4.8 km/h 97% 0.0 mm 21 W/m2
06:39 13.3 °C 12.8 °C 1009.1 hPa Calm     97% 0.0 mm 28 W/m2
06:44 13.3 °C 12.8 °C 1009.1 hPa East 1.4 km/h 4.8 km/h 97% 0.0 mm 26 W/m2
06:49 13.4 °C 12.9 °C 1009.1 hPa Calm   3.2 km/h 97% 0.0 mm 30 W/m2
06:54 13.4 °C 12.9 °C 1009.1 hPa West 1.4 km/h 3.2 km/h 97% 0.0 mm 51 W/m2
06:59 13.4 °C 12.9 °C 1009.1 hPa West 1.4 km/h 3.2 km/h 97% 0.0 mm 58 W/m2
07:04 13.3 °C 12.8 °C 1009.1 hPa ENE 1.4 km/h 4.8 km/h 97% 0.0 mm 47 W/m2
07:09 13.2 °C 12.7 °C 1009.1 hPa East 1.4 km/h 3.2 km/h 97% 0.0 mm 56 W/m2
07:14 13.3 °C 12.8 °C 1009.1 hPa East 1.4 km/h 3.2 km/h 97% 0.0 mm 49 W/m2
07:19 13.3 °C 12.8 °C 1009.1 hPa ENE 4.7 km/h 4.8 km/h 97% 0.0 mm 42 W/m2
07:24 13.3 °C 12.8 °C 1009.1 hPa Calm   1.6 km/h 97% 0.0 mm 62 W/m2
07:29 13.4 °C 12.9 °C 1009.1 hPa East 1.4 km/h 3.2 km/h 97% 0.0 mm 62 W/m2
07:34 13.5 °C 13 °C 1009.1 hPa Calm   3.2 km/h 97% 0.0 mm 88 W/m2
07:40 13.7 °C 13.2 °C 1009.5 hPa Calm   1.6 km/h 97% 0.0 mm 77 W/m2
07:45 13.8 °C 13.3 °C 1009.5 hPa East 3.2 km/h 6.4 km/h 97% 0.0 mm 167 W/m2
07:50 13.8 °C 13.3 °C 1009.5 hPa East 3.2 km/h 3.2 km/h 97% 0.0 mm 102 W/m2
07:55 13.7 °C 13.2 °C 1009.5 hPa East 1.4 km/h 6.4 km/h 97% 0.0 mm 86 W/m2
08:00 13.8 °C 13.3 °C 1009.5 hPa ENE 3.2 km/h 3.2 km/h 97% 0.0 mm 132 W/m2
08:05 13.8 °C 13.3 °C 1009.5 hPa ESE 4.7 km/h 4.8 km/h 97% 0.0 mm 84 W/m2
08:10 13.9 °C 13.4 °C 1009.8 hPa Calm   3.2 km/h 97% 0.0 mm 127 W/m2
08:15 14 °C 13.7 °C 1009.8 hPa NE 1.4 km/h 3.2 km/h 98% 0.0 mm 148 W/m2
08:20 14.1 °C 13.6 °C 1009.8 hPa ESE 4.7 km/h 9.7 km/h 97% 0.0 mm 163 W/m2
08:25 14.2 °C 13.7 °C 1009.8 hPa ENE 3.2 km/h 6.4 km/h 97% 0.0 mm 209 W/m2
08:30 14.3 °C 14 °C 1009.8 hPa ENE 1.4 km/h 9.7 km/h 98% 0.0 mm 213 W/m2
08:35 14.4 °C 13.9 °C 1009.8 hPa ENE 3.2 km/h 9.7 km/h 97% 0.0 mm 244 W/m2
08:40 14.6 °C 14.1 °C 1009.8 hPa East 4.7 km/h 6.4 km/h 97% 0.0 mm 427 W/m2
08:46 14.9 °C 14.4 °C 1009.8 hPa Calm   6.4 km/h 97% 0.0 mm 399 W/m2
08:51 15.3 °C 15 °C 1009.8 hPa East 3.2 km/h 6.4 km/h 98% 0.0 mm 411 W/m2
08:56 15.6 °C 15.3 °C 1010.2 hPa SSE 1.4 km/h 1.6 km/h 98% 0.0 mm 427 W/m2
09:01 15.7 °C 15.4 °C 1010.2 hPa ESE 3.2 km/h 6.4 km/h 98% 0.0 mm 120 W/m2
09:06 15.9 °C 15.4 °C 1009.8 hPa SE 4.7 km/h 6.4 km/h 97% 0.0 mm 457 W/m2
09:11 16.3 °C 15.8 °C 1009.8 hPa ENE 4.7 km/h 4.8 km/h 97% 0.0 mm 469 W/m2
09:16 16.4 °C 15.9 °C 1010.2 hPa East 3.2 km/h 6.4 km/h 97% 0.0 mm 485 W/m2
09:21 16.7 °C 16.1 °C 1010.2 hPa ESE 3.2 km/h 4.8 km/h 96% 0.0 mm 494 W/m2
09:26 17 °C 16.2 °C 1010.2 hPa East 4.7 km/h 4.8 km/h 95% 0.0 mm 519 W/m2
09:31 17.3 °C 16.3 °C 1010.2 hPa Calm   1.6 km/h 94% 0.0 mm 527 W/m2
09:36 17.6 °C 16.5 °C 1010.2 hPa NE 1.4 km/h 4.8 km/h 93% 0.0 mm 552 W/m2
09:41 17.9 °C 16.6 °C 1010.2 hPa NNE 6.4 km/h 9.7 km/h 92% 0.0 mm 568 W/m2
09:46 18.3 °C 16.6 °C 1010.2 hPa Calm   3.2 km/h 90% 0.0 mm 563 W/m2
09:51 18.6 °C 16.6 °C 1010.2 hPa East 3.2 km/h 6.4 km/h 88% 0.0 mm 573 W/m2
09:56 19 °C 16.6 °C 1010.2 hPa East 3.2 km/h 11.3 km/h 86% 0.0 mm 580 W/m2
10:01 19.1 °C 16.3 °C 1010.2 hPa ENE 1.4 km/h 4.8 km/h 84% 0.0 mm 594 W/m2
10:06 19.3 °C 16.1 °C 1010.2 hPa NNW 3.2 km/h 11.3 km/h 82% 0.0 mm 601 W/m2
10:11 19.4 °C 15.7 °C 1010.2 hPa NNE 7.9 km/h 14.5 km/h 79% 0.0 mm 60 W/m2
10:16 19.4 °C 15.9 °C 1010.2 hPa ESE 4.7 km/h 8 km/h 80% 0.0 mm 116 W/m2
10:21 19.7 °C 16 °C 1010.2 hPa ENE 1.4 km/h 6.4 km/h 79% 0.0 mm 640 W/m2
10:26 19.9 °C 15.7 °C 1010.2 hPa East 3.2 km/h 6.4 km/h 77% 0.0 mm 656 W/m2
10:31 20.3 °C 16.1 °C 1010.2 hPa SSW 1.4 km/h 3.2 km/h 77% 0.0 mm 666 W/m2
10:36 20.4 °C 16.6 °C 1009.8 hPa SSW 3.2 km/h 3.2 km/h 79% 0.0 mm 679 W/m2
10:41 20.3 °C 16.3 °C 1009.8 hPa WSW 1.4 km/h 4.8 km/h 78% 0.0 mm 687 W/m2
10:46 20.3 °C 15.7 °C 1009.8 hPa WNW 6.4 km/h 12.9 km/h 75% 0.0 mm 701 W/m2
10:51 20.4 °C 16 °C 1009.8 hPa Calm   1.6 km/h 76% 0.0 mm 710 W/m2
10:56 20.4 °C 15.2 °C 1009.8 hPa WSW 3.2 km/h 11.3 km/h 72% 0.0 mm 719 W/m2
11:01 20.5 °C 15.3 °C 1009.8 hPa West 1.4 km/h 8 km/h 72% 0.0 mm 728 W/m2
11:06 20.7 °C 15.9 °C 1009.8 hPa West 1.4 km/h 6.4 km/h 74% 0.0 mm 737 W/m2
11:11 20.9 °C 16.3 °C 1009.8 hPa Calm   8 km/h 75% 0.0 mm 747 W/m2
11:16 21.1 °C 15.4 °C 1009.8 hPa Calm   4.8 km/h 70% 0.0 mm 756 W/m2
11:21 21.2 °C 15.3 °C 1009.8 hPa NNE 1.4 km/h 8 km/h 69% 0.0 mm 765 W/m2
11:26 21.2 °C 15.1 °C 1009.8 hPa Calm   3.2 km/h 68% 0.0 mm 773 W/m2
11:31 21.5 °C 15.8 °C 1009.8 hPa NNW 3.2 km/h 8 km/h 70% 0.0 mm 784 W/m2
11:36 21.7 °C 15.5 °C 1009.8 hPa SW 3.2 km/h 3.2 km/h 68% 0.0 mm 798 W/m2
11:41 21.8 °C 16.1 °C 1009.8 hPa Calm   8 km/h 70% 0.0 mm 830 W/m2
11:46 22.2 °C 16.5 °C 1009.8 hPa Calm   3.2 km/h 70% 0.0 mm 893 W/m2
11:51 22.6 °C 16.2 °C 1009.8 hPa WNW 1.4 km/h 3.2 km/h 67% 0.0 mm 933 W/m2
11:56 22.8 °C 16.4 °C 1009.5 hPa NE 1.4 km/h 6.4 km/h 67% 0.0 mm 904 W/m2
12:01 23.3 °C 16.3 °C 1009.8 hPa Calm   4.8 km/h 65% 0.0 mm 932 W/m2
12:06 23.1 °C 15.9 °C 1009.8 hPa North 3.2 km/h 8 km/h 64% 0.0 mm 304 W/m2
12:11 23.1 °C 15.7 °C 1009.8 hPa NW 1.4 km/h 3.2 km/h 63% 0.0 mm 309 W/m2
12:16 22.9 °C 15.7 °C 1009.8 hPa East 4.7 km/h 17.7 km/h 64% 0.0 mm 1025 W/m2
12:21 22.6 °C 16.4 °C 1009.8 hPa Calm   6.4 km/h 68% 0.0 mm 283 W/m2
12:26 22.5 °C 15.8 °C 1009.8 hPa Calm   17.7 km/h 66% 0.0 mm 207 W/m2
12:31 22.6 °C 15.9 °C 1009.8 hPa WNW 1.4 km/h 4.8 km/h 66% 0.0 mm 225 W/m2
12:36 22.6 °C 15.2 °C 1009.8 hPa WNW 3.2 km/h 6.4 km/h 63% 0.0 mm 336 W/m2
12:41 22.4 °C 14.8 °C 1010.2 hPa ESE 9.7 km/h 9.7 km/h 62% 0.0 mm 230 W/m2
12:46 22.3 °C 14.2 °C 1010.2 hPa SSE 6.4 km/h 6.4 km/h 60% 0.0 mm 587 W/m2
12:51 22.7 °C 15 °C 1010.2 hPa South 1.4 km/h 4.8 km/h 62% 0.0 mm 933 W/m2
12:56 23.1 °C 14.6 °C 1010.2 hPa SE 3.2 km/h 6.4 km/h 59% 0.0 mm 320 W/m2
13:01 23.6 °C 15.4 °C 1009.8 hPa Calm   6.4 km/h 60% 0.0 mm 1020 W/m2
13:06 23.9 °C 15.7 °C 1009.8 hPa Calm   4.8 km/h 60% 0.0 mm 1071 W/m2
13:11 24.1 °C 15 °C 1009.8 hPa NW 3.2 km/h 4.8 km/h 57% 0.0 mm 506 W/m2
13:16 23.9 °C 14.3 °C 1009.8 hPa ENE 3.2 km/h 4.8 km/h 55% 0.0 mm 529 W/m2
13:21 24 °C 14.4 °C 1009.8 hPa NW 3.2 km/h 3.2 km/h 55% 0.0 mm 944 W/m2
13:26 23.8 °C 14.2 °C 1009.8 hPa SW 1.4 km/h 4.8 km/h 55% 0.0 mm 295 W/m2
13:31 23.3 °C 14.3 °C 1009.8 hPa Calm   11.3 km/h 57% 0.0 mm 279 W/m2
13:36 22.9 °C 14.2 °C 1009.8 hPa WNW 4.7 km/h 6.4 km/h 58% 0.0 mm 345 W/m2
13:41 22.8 °C 15.1 °C 1009.8 hPa SSW 3.2 km/h 9.7 km/h 62% 0.0 mm 424 W/m2
13:46 22.8 °C 14.9 °C 1009.8 hPa NW 3.2 km/h 6.4 km/h 61% 0.0 mm 446 W/m2
13:51 22.9 °C 14.7 °C 1009.8 hPa West 1.4 km/h 4.8 km/h 60% 0.0 mm 425 W/m2
13:56 23 °C 14.8 °C 1009.8 hPa NNW 1.4 km/h 6.4 km/h 60% 0.0 mm 455 W/m2
14:01 23.2 °C 15.8 °C 1009.8 hPa North 1.4 km/h 1.6 km/h 63% 0.0 mm 403 W/m2
14:06 23.4 °C 15.2 °C 1009.8 hPa Calm   3.2 km/h 60% 0.0 mm 1172 W/m2
14:11 23.7 °C 14.7 °C 1009.8 hPa NNE 1.4 km/h 3.2 km/h 57% 0.0 mm 867 W/m2
14:16 23.7 °C 15.2 °C 1009.8 hPa NW 3.2 km/h 11.3 km/h 59% 0.0 mm 348 W/m2
14:21 23.6 °C 15.1 °C 1009.8 hPa East 3.2 km/h 3.2 km/h 59% 0.0 mm 162 W/m2
14:26 23.4 °C 16.2 °C 1009.8 hPa NNE 3.2 km/h 8 km/h 64% 0.0 mm 204 W/m2
14:31 23.3 °C 15.9 °C 1009.8 hPa East 4.7 km/h 6.4 km/h 63% 0.0 mm 299 W/m2
14:36 23.2 °C 15.8 °C 1009.8 hPa ENE 1.4 km/h 3.2 km/h 63% 0.0 mm 323 W/m2
14:41 23.3 °C 15.9 °C 1009.8 hPa NE 4.7 km/h 6.4 km/h 63% 0.0 mm 290 W/m2
14:46 23.3 °C 16.6 °C 1009.8 hPa Calm   1.6 km/h 66% 0.0 mm 292 W/m2
14:51 23.3 °C 15.4 °C 1009.8 hPa SE 3.2 km/h 4.8 km/h 61% 0.0 mm 265 W/m2
14:56 23.4 °C 16.7 °C 1009.8 hPa SSE 3.2 km/h 3.2 km/h 66% 0.0 mm 327 W/m2
15:01 23.4 °C 16.2 °C 1009.5 hPa Calm   3.2 km/h 64% 0.0 mm 378 W/m2
15:06 23.8 °C 16.3 °C 1009.8 hPa Calm   1.6 km/h 63% 0.0 mm 378 W/m2
15:11 24.1 °C 16.6 °C 1009.8 hPa East 4.7 km/h 9.7 km/h 63% 0.0 mm 374 W/m2
15:16 24.1 °C 15.3 °C 1009.5 hPa East 9.7 km/h 9.7 km/h 58% 0.0 mm 294 W/m2
15:21 23.8 °C 15.3 °C 1009.5 hPa ENE 1.4 km/h 6.4 km/h 59% 0.0 mm 183 W/m2
15:26 23.7 °C 16.5 °C 1009.5 hPa SSE 1.4 km/h 3.2 km/h 64% 0.0 mm 114 W/m2
15:31 23.3 °C 16.1 °C 1009.5 hPa SSE 1.4 km/h 4.8 km/h 64% 0.0 mm 132 W/m2
15:36 23.2 °C 17.4 °C 1009.5 hPa Calm   1.6 km/h 70% 0.0 mm 137 W/m2
15:41 22.8 °C 16.8 °C 1009.8 hPa SE 3.2 km/h 3.2 km/h 69% 0.0 mm 90 W/m2
15:46 22.5 °C 17 °C 1009.8 hPa ENE 1.4 km/h 3.2 km/h 71% 0.0 mm 65 W/m2
15:51 22.1 °C 16.6 °C 1009.8 hPa ENE 1.4 km/h 8 km/h 71% 0.0 mm 53 W/m2
15:56 21.8 °C 17 °C 1009.8 hPa SE 1.4 km/h 1.6 km/h 74% 0.0 mm 42 W/m2
16:01 21.3 °C 16.9 °C 1009.8 hPa SE 8 km/h 8 km/h 76% 0.2 mm 47 W/m2
16:06 20.9 °C 17.5 °C 1009.8 hPa Calm   1.6 km/h 81% 0.2 mm 62 W/m2
16:11 20.6 °C 17.6 °C 1010.2 hPa Calm   1.6 km/h 83% 0.2 mm 58 W/m2
16:16 20.1 °C 17.3 °C 1010.2 hPa Calm   3.2 km/h 84% 0.5 mm 47 W/m2
16:21 19.6 °C 17 °C 1010.2 hPa South 1.4 km/h 3.2 km/h 85% 0.5 mm 49 W/m2
16:26 19.3 °C 17.1 °C 1010.2 hPa Calm   1.6 km/h 87% 0.5 mm 47 W/m2
16:31 19.1 °C 17.1 °C 1010.2 hPa Calm   1.6 km/h 88% 0.8 mm 51 W/m2
16:36 18.8 °C 16.9 °C 1010.2 hPa Calm     89% 0.8 mm 56 W/m2
16:42 18.7 °C 16.8 °C 1010.2 hPa Calm   1.6 km/h 89% 0.8 mm 63 W/m2
16:47 18.6 °C 16.9 °C 1010.2 hPa Calm   3.2 km/h 90% 0.8 mm 65 W/m2
16:52 18.5 °C 16.8 °C 1010.2 hPa Calm   1.6 km/h 90% 0.8 mm 63 W/m2
16:57 18.5 °C 16.8 °C 1010.2 hPa Calm     90% 1.0 mm 72 W/m2
17:02 18.5 °C 17 °C 1010.5 hPa Calm     91% 0.8 mm 79 W/m2
17:07 18.5 °C 16.8 °C 1010.5 hPa NNE 1.4 km/h 1.6 km/h 90% 0.8 mm 70 W/m2
17:12 18.5 °C 16.8 °C 1010.5 hPa Calm   1.6 km/h 90% 0.8 mm 62 W/m2
17:17 18.6 °C 16.8 °C 1010.5 hPa SSE 1.4 km/h 1.6 km/h 89% 0.5 mm 65 W/m2
17:22 18.6 °C 16.6 °C 1010.5 hPa NNW 1.4 km/h 3.2 km/h 88% 0.5 mm 79 W/m2
17:27 18.6 °C 16.8 °C 1010.5 hPa Calm   3.2 km/h 89% 0.5 mm 88 W/m2
17:32 18.6 °C 16.9 °C 1010.5 hPa North 1.4 km/h 4.8 km/h 90% 0.5 mm 79 W/m2
17:37 18.6 °C 16.9 °C 1010.5 hPa Calm     90% 0.5 mm 62 W/m2
17:42 18.4 °C 16.7 °C 1010.5 hPa Calm   4.8 km/h 90% 0.5 mm 39 W/m2
17:47 18.4 °C 16.7 °C 1010.5 hPa Calm     90% 0.5 mm 44 W/m2
17:52 18.4 °C 16.7 °C 1010.5 hPa Calm     90% 0.5 mm 46 W/m2
17:57 18.3 °C 16.6 °C 1010.5 hPa NW 3.2 km/h 6.4 km/h 90% 0.2 mm 72 W/m2
18:02 18.2 °C 16.5 °C 1010.5 hPa WNW 1.4 km/h 3.2 km/h 90% 0.2 mm 86 W/m2
18:07 18.2 °C 16.5 °C 1010.5 hPa WNW 1.4 km/h 4.8 km/h 90% 0.2 mm 95 W/m2
18:12 18.3 °C 16.6 °C 1010.5 hPa WNW 4.7 km/h 11.3 km/h 90% 0.2 mm 81 W/m2
18:17 18.2 °C 16.4 °C 1010.5 hPa West 1.4 km/h 12.9 km/h 89% 0.2 mm 74 W/m2
18:22 18.2 °C 16.4 °C 1010.5 hPa WSW 1.4 km/h 6.4 km/h 89% 0.2 mm 79 W/m2
18:27 18.2 °C 16.4 °C 1010.5 hPa West 4.7 km/h 8 km/h 89% 0.2 mm 72 W/m2
18:32 18.2 °C 16.5 °C 1010.5 hPa West 3.2 km/h 6.4 km/h 90% 0.0 mm 60 W/m2
18:37 18.2 °C 16.5 °C 1010.5 hPa WSW 4.7 km/h 4.8 km/h 90% 0.0 mm 74 W/m2
18:42 18.2 °C 16.5 °C 1010.5 hPa NW 7.9 km/h 11.3 km/h 90% 0.0 mm 84 W/m2
18:47 18.1 °C 16.3 °C 1010.8 hPa WSW 4.7 km/h 14.5 km/h 89% 0.0 mm 76 W/m2
18:52 18.1 °C 16.3 °C 1010.8 hPa WNW 4.7 km/h 9.7 km/h 89% 0.0 mm 69 W/m2
18:57 18.1 °C 16.4 °C 1010.8 hPa WSW 7.9 km/h 14.5 km/h 90% 0.0 mm 62 W/m2
19:02 18.1 °C 16.4 °C 1010.5 hPa West 3.2 km/h 6.4 km/h 90% 0.0 mm 62 W/m2
19:07 18.1 °C 16.4 °C 1010.8 hPa WNW 3.2 km/h 14.5 km/h 90% 0.0 mm 62 W/m2
19:12 17.9 °C 16.2 °C 1010.8 hPa NW 6.4 km/h 6.4 km/h 90% 0.0 mm 58 W/m2
19:17 17.9 °C 16.2 °C 1010.5 hPa West 13 km/h 12.9 km/h 90% 0.0 mm 63 W/m2
19:22 17.8 °C 16.1 °C 1010.5 hPa West 6.4 km/h 9.7 km/h 90% 0.0 mm 84 W/m2
19:27 17.7 °C 16.2 °C 1010.5 hPa NW 11.3 km/h 11.3 km/h 91% 0.0 mm 128 W/m2
19:32 17.8 °C 16.3 °C 1010.5 hPa West 3.2 km/h 8 km/h 91% 0.0 mm 132 W/m2
19:37 17.8 °C 16.3 °C 1010.5 hPa West 1.4 km/h 4.8 km/h 91% 0.0 mm 111 W/m2
19:42 17.9 °C 16.2 °C 1010.5 hPa Calm   8 km/h 90% 0.0 mm 93 W/m2
19:47 17.9 °C 16.4 °C 1010.5 hPa Calm     91% 0.0 mm 84 W/m2
19:52 18 °C 16.3 °C 1010.5 hPa Calm   3.2 km/h 90% 0.0 mm 105 W/m2
19:57 18.1 °C 16.3 °C 1010.8 hPa WNW 1.4 km/h 3.2 km/h 89% 0.0 mm 93 W/m2
20:02 18.1 °C 16.3 °C 1010.5 hPa West 1.4 km/h 1.6 km/h 89% 0.0 mm 72 W/m2
20:07 18.1 °C 16.4 °C 1010.5 hPa Calm     90% 0.0 mm 76 W/m2
20:12 18 °C 16.3 °C 1010.5 hPa Calm     90% 0.0 mm 70 W/m2
20:17 17.9 °C 16.2 °C 1010.5 hPa West 1.4 km/h 3.2 km/h 90% 0.0 mm 63 W/m2
20:22 17.9 °C 16.4 °C 1010.5 hPa Calm   1.6 km/h 91% 0.0 mm 60 W/m2
20:27 17.8 °C 16.3 °C 1010.8 hPa Calm     91% 0.0 mm 63 W/m2
20:32 17.7 °C 16.2 °C 1010.8 hPa Calm   1.6 km/h 91% 0.0 mm 56 W/m2
20:37 17.7 °C 16.2 °C 1010.8 hPa Calm     91% 0.0 mm 49 W/m2
20:42 17.6 °C 15.9 °C 1010.8 hPa NNW 1.4 km/h 3.2 km/h 90% 0.0 mm 47 W/m2
20:48 17.6 °C 15.9 °C 1010.8 hPa Calm     90% 0.0 mm 40 W/m2
20:53 17.6 °C 16.1 °C 1010.8 hPa Calm   3.2 km/h 91% 0.0 mm 32 W/m2
20:58 17.4 °C 15.9 °C 1011.2 hPa West 1.4 km/h 1.6 km/h 91% 0.0 mm 23 W/m2
21:03 17.3 °C 15.8 °C 1011.2 hPa Calm   1.6 km/h 91% 0.0 mm 19 W/m2
21:08 17.1 °C 15.6 °C 1011.2 hPa Calm     91% 0.0 mm 18 W/m2
21:13 16.9 °C 15.4 °C 1011.2 hPa Calm     91% 0.0 mm 14 W/m2
21:18 16.7 °C 15.2 °C 1011.2 hPa NW 3.2 km/h 3.2 km/h 91% 0.0 mm 12 W/m2
21:23 16.6 °C 15.1 °C 1011.2 hPa Calm     91% 0.0 mm 11 W/m2
21:28 16.3 °C 14.8 °C 1011.2 hPa WSW 1.4 km/h 3.2 km/h 91% 0.0 mm 7 W/m2
21:33 16.2 °C 14.7 °C 1011.2 hPa WSW 1.4 km/h 1.6 km/h 91% 0.0 mm 5 W/m2
21:38 16.1 °C 14.8 °C 1011.5 hPa Calm   1.6 km/h 92% 0.0 mm 0 W/m2
21:43 15.9 °C 14.6 °C 1011.5 hPa Calm   1.6 km/h 92% 0.0 mm 0 W/m2
21:48 15.8 °C 14.7 °C 1011.5 hPa Calm   1.6 km/h 93% 0.0 mm 0 W/m2
21:53 15.7 °C 14.6 °C 1011.9 hPa Calm     93% 0.0 mm 0 W/m2
21:58 15.6 °C 14.5 °C 1011.9 hPa Calm     93% 0.0 mm 0 W/m2
22:03 15.6 °C 14.5 °C 1011.9 hPa Calm     93% 0.0 mm 0 W/m2
22:08 15.5 °C 14.4 °C 1011.9 hPa Calm     93% 0.0 mm 0 W/m2
22:13 15.4 °C 14.3 °C 1012.2 hPa Calm     93% 0.0 mm 0 W/m2
22:18 15.3 °C 14.2 °C 1012.2 hPa Calm     93% 0.0 mm 0 W/m2
22:23 15.2 °C 14.2 °C 1012.2 hPa Calm     94% 0.0 mm 0 W/m2
22:28 15.2 °C 14.2 °C 1012.2 hPa Calm     94% 0.0 mm 0 W/m2
22:33 15.2 °C 14.2 °C 1012.2 hPa Calm     94% 0.0 mm 0 W/m2
22:38 15.1 °C 14.1 °C 1012.2 hPa Calm     94% 0.0 mm 0 W/m2
22:43 15.1 °C 14.1 °C 1012.2 hPa Calm     94% 0.0 mm 0 W/m2
22:48 15.1 °C 14.1 °C 1012.2 hPa Calm     94% 0.0 mm 0 W/m2
22:53 15.1 °C 14.1 °C 1012.2 hPa Calm     94% 0.0 mm 0 W/m2
22:58 15.1 °C 14.3 °C 1012.5 hPa Calm     95% 0.0 mm 0 W/m2
23:03 15.1 °C 14.3 °C 1012.5 hPa Calm     95% 0.0 mm 0 W/m2
23:08 15.1 °C 14.3 °C 1012.5 hPa Calm     95% 0.0 mm 0 W/m2
23:13 15.2 °C 14.4 °C 1012.5 hPa Calm     95% 0.0 mm 0 W/m2
23:18 15.2 °C 14.4 °C 1012.5 hPa WSW 1.4 km/h 3.2 km/h 95% 0.0 mm 0 W/m2
23:23 15.1 °C 14.3 °C 1012.5 hPa Calm     95% 0.0 mm 0 W/m2
23:28 15.1 °C 14.3 °C 1012.5 hPa Calm     95% 0.0 mm 0 W/m2
23:33 15.1 °C 14.3 °C 1012.5 hPa Calm     95% 0.0 mm 0 W/m2
23:38 15.1 °C 14.3 °C 1012.5 hPa WSW 1.4 km/h 1.6 km/h 95% 0.0 mm 0 W/m2
23:43 15 °C 14.2 °C 1012.5 hPa Calm   1.6 km/h 95% 0.0 mm 0 W/m2
23:48 14.9 °C 14.1 °C 1012.5 hPa Calm     95% 0.0 mm 0 W/m2
23:53 14.9 °C 14.1 °C 1012.5 hPa Calm   1.6 km/h 95% 0.0 mm 0 W/m2
23:58 14.8 °C 14 °C 1012.5 hPa Calm     95% 0.0 mm 0 W/m2
Juneau County Weather
Compliments of Weather Underground - 4 mb